createdAt,value
2023-02-27T00:01:34.959Z,1.67
2023-02-27T00:04:04.211Z,1.83
2023-02-27T00:06:33.754Z,1.97
2023-02-27T00:09:04.462Z,1.90
2023-02-27T00:11:33.508Z,1.80
2023-02-27T00:14:02.695Z,2.10
2023-02-27T00:16:29.636Z,2.00
2023-02-27T00:19:01.334Z,1.70
2023-02-27T00:21:29.294Z,1.90
2023-02-27T00:23:56.161Z,1.73
2023-02-27T00:26:25.778Z,2.10
2023-02-27T00:28:57.072Z,1.70
2023-02-27T00:31:24.919Z,1.93
2023-02-27T00:33:54.653Z,1.93
2023-02-27T00:36:21.732Z,1.80
2023-02-27T00:38:51.599Z,1.67
2023-02-27T00:41:20.664Z,1.87
2023-02-27T00:43:47.460Z,1.80
2023-02-27T00:46:19.582Z,1.90
2023-02-27T00:48:48.845Z,1.70
2023-02-27T00:51:15.814Z,1.67
2023-02-27T00:53:44.781Z,2.00
2023-02-27T00:56:16.869Z,2.23
2023-02-27T00:58:45.148Z,2.10
2023-02-27T01:01:15.293Z,2.30
2023-02-27T01:03:42.681Z,1.63
2023-02-27T01:06:10.929Z,1.87
2023-02-27T01:08:38.013Z,1.60
2023-02-27T01:11:05.897Z,1.80
2023-02-27T01:13:35.380Z,1.87
2023-02-27T01:16:05.078Z,2.07
2023-02-27T01:18:34.275Z,1.80
2023-02-27T01:21:05.972Z,1.80
2023-02-27T01:23:34.719Z,1.67
2023-02-27T01:26:02.137Z,1.90
2023-02-27T01:28:31.947Z,2.00
2023-02-27T01:30:58.927Z,1.57
2023-02-27T01:33:28.869Z,1.80
2023-02-27T01:35:58.454Z,2.27
2023-02-27T01:38:28.132Z,1.90
2023-02-27T01:41:00.700Z,2.30
2023-02-27T01:43:27.916Z,1.80
2023-02-27T01:45:59.463Z,1.73
2023-02-27T01:48:33.716Z,2.10
2023-02-27T01:51:19.082Z,1.70
2023-02-27T01:53:53.953Z,1.90
2023-02-27T01:56:32.696Z,1.90
2023-02-27T01:59:06.447Z,1.77
2023-02-27T02:01:37.414Z,2.00
2023-02-27T02:04:26.114Z,2.10
2023-02-27T02:07:07.246Z,1.90
2023-02-27T02:09:43.977Z,2.13
2023-02-27T02:12:15.965Z,1.93
2023-02-27T02:14:44.202Z,1.80
2023-02-27T02:17:29.923Z,1.73
2023-02-27T02:20:40.436Z,1.80
2023-02-27T02:23:47.709Z,1.87
2023-02-27T02:26:41.584Z,1.70
2023-02-27T02:29:53.216Z,2.27
2023-02-27T02:32:57.547Z,1.73
2023-02-27T02:36:10.753Z,1.97
2023-02-27T02:39:21.868Z,1.60
2023-02-27T02:42:03.588Z,1.90
2023-02-27T02:44:56.587Z,1.87
2023-02-27T02:47:45.533Z,1.80
2023-02-27T02:50:18.141Z,1.40
2023-02-27T02:53:12.598Z,1.63
2023-02-27T02:56:02.139Z,1.70
2023-02-27T02:58:59.704Z,1.70
2023-02-27T03:01:46.728Z,2.17
2023-02-27T03:04:50.144Z,1.77
2023-02-27T03:07:48.290Z,1.60
2023-02-27T03:10:22.492Z,1.70
2023-02-27T03:13:11.936Z,1.60
2023-02-27T03:15:52.638Z,1.70
2023-02-27T03:18:32.570Z,1.80
2023-02-27T03:21:12.593Z,1.80
2023-02-27T03:23:47.159Z,1.77
2023-02-27T03:26:24.286Z,1.80
2023-02-27T03:29:06.392Z,1.40
2023-02-27T03:31:41.147Z,1.70
2023-02-27T03:34:42.922Z,1.67
2023-02-27T03:37:19.200Z,1.80
2023-02-27T03:39:55.164Z,1.70
2023-02-27T03:42:34.671Z,1.70
2023-02-27T03:45:38.945Z,1.70
2023-02-27T03:48:10.489Z,1.80
2023-02-27T03:50:38.307Z,1.63
2023-02-27T03:53:16.829Z,1.70
2023-02-27T03:55:51.058Z,1.70
2023-02-27T03:58:20.378Z,1.30
2023-02-27T04:00:47.446Z,1.67
2023-02-27T04:03:17.497Z,1.57
2023-02-27T04:05:44.539Z,1.70
2023-02-27T04:08:46.902Z,1.50
2023-02-27T04:11:57.264Z,1.60
2023-02-27T04:15:03.311Z,1.50
2023-02-27T04:17:38.825Z,1.77
2023-02-27T04:20:17.351Z,1.67
2023-02-27T04:23:02.376Z,1.60
2023-02-27T04:26:21.954Z,1.57
2023-02-27T04:29:23.279Z,1.87
2023-02-27T04:32:17.542Z,1.90
2023-02-27T04:35:20.176Z,1.97
2023-02-27T04:38:01.888Z,1.70
2023-02-27T04:40:42.504Z,1.63
2023-02-27T04:43:12.361Z,1.90
2023-02-27T04:45:44.197Z,1.90
2023-02-27T04:48:27.315Z,1.50
2023-02-27T04:51:05.821Z,2.00
2023-02-27T04:53:47.337Z,1.80
2023-02-27T04:56:25.884Z,1.50
2023-02-27T04:59:19.373Z,1.50
2023-02-27T05:02:03.670Z,1.80
2023-02-27T05:04:37.947Z,2.00
2023-02-27T05:07:13.660Z,1.60
2023-02-27T05:10:01.728Z,1.57
2023-02-27T05:12:52.514Z,1.63
2023-02-27T05:15:30.720Z,1.47
2023-02-27T05:18:17.778Z,1.40
2023-02-27T05:21:16.699Z,1.37
2023-02-27T05:24:16.126Z,1.40
2023-02-27T05:27:12.656Z,1.67
2023-02-27T05:29:56.552Z,1.50
2023-02-27T05:32:55.318Z,1.30
2023-02-27T05:35:39.263Z,1.40
2023-02-27T05:38:24.009Z,1.57
2023-02-27T05:40:58.536Z,1.70
2023-02-27T05:43:45.365Z,1.40
2023-02-27T05:46:23.765Z,1.50
2023-02-27T05:49:02.478Z,1.50
2023-02-27T05:51:37.310Z,1.73
2023-02-27T05:54:13.603Z,1.60
2023-02-27T05:56:49.926Z,1.93
2023-02-27T05:59:49.757Z,1.47
2023-02-27T06:02:17.200Z,1.80
2023-02-27T06:04:46.861Z,1.60
2023-02-27T06:07:16.331Z,1.70
2023-02-27T06:09:47.136Z,1.63
2023-02-27T06:12:14.073Z,2.10
2023-02-27T06:14:45.996Z,1.77
2023-02-27T06:17:12.864Z,1.60
2023-02-27T06:19:39.790Z,1.80
2023-02-27T06:22:10.026Z,1.80
2023-02-27T06:24:37.051Z,1.90
2023-02-27T06:27:04.142Z,1.73
2023-02-27T06:29:33.680Z,1.30
2023-02-27T06:32:05.617Z,1.80
2023-02-27T06:34:34.821Z,1.77
2023-02-27T06:37:04.174Z,1.87
2023-02-27T06:39:31.246Z,1.50
2023-02-27T06:41:58.303Z,2.07
2023-02-27T06:44:25.300Z,1.93
2023-02-27T06:46:52.135Z,1.97
2023-02-27T06:49:21.019Z,1.50
2023-02-27T06:51:50.437Z,1.70
2023-02-27T06:54:17.304Z,1.93
2023-02-27T06:56:46.492Z,1.70
2023-02-27T06:59:18.109Z,1.63
2023-02-27T07:01:48.291Z,1.70
2023-02-27T07:04:15.684Z,2.20
2023-02-27T07:07:34.177Z,1.57
2023-02-27T07:09:37.176Z,1.80
2023-02-27T07:12:07.872Z,2.17
2023-02-27T07:14:35.044Z,2.00
2023-02-27T07:17:04.865Z,1.97
2023-02-27T07:19:33.661Z,1.97
2023-02-27T07:22:03.418Z,1.97
2023-02-27T07:24:32.560Z,1.90
2023-02-27T07:26:59.322Z,2.00
2023-02-27T07:29:30.681Z,1.80
2023-02-27T07:31:57.669Z,1.90
2023-02-27T07:34:24.484Z,2.10
2023-02-27T07:36:53.959Z,2.20
2023-02-27T07:39:23.063Z,2.00
2023-02-27T07:41:52.288Z,1.97
2023-02-27T07:44:22.412Z,1.90
2023-02-27T07:46:51.435Z,2.23
2023-02-27T07:49:20.388Z,2.10
2023-02-27T07:51:47.303Z,2.10
2023-02-27T07:54:14.113Z,1.87
2023-02-27T07:56:45.575Z,2.27
2023-02-27T07:59:12.563Z,2.43
2023-02-27T08:01:39.464Z,2.00
2023-02-27T08:04:08.691Z,1.50
2023-02-27T08:06:40.064Z,1.77
2023-02-27T08:09:10.839Z,1.90
2023-02-27T08:11:42.445Z,1.80
2023-02-27T08:14:14.035Z,2.07
2023-02-27T08:16:43.104Z,2.30
2023-02-27T08:19:12.657Z,2.00
2023-02-27T08:21:42.021Z,2.07
2023-02-27T08:24:14.246Z,2.20
2023-02-27T08:26:43.117Z,2.00
2023-02-27T08:29:12.131Z,2.37
2023-02-27T08:31:44.170Z,2.10
2023-02-27T08:34:13.425Z,2.57
2023-02-27T08:36:40.633Z,1.90
2023-02-27T08:39:11.689Z,2.00
2023-02-27T08:41:40.742Z,2.07
2023-02-27T08:44:10.527Z,1.83
2023-02-27T08:46:37.535Z,2.23
2023-02-27T08:49:08.562Z,2.00
2023-02-27T08:51:37.999Z,2.03
2023-02-27T08:54:09.519Z,2.10
2023-02-27T08:56:38.465Z,1.93
2023-02-27T08:59:09.985Z,2.17
2023-02-27T09:01:39.722Z,2.20
2023-02-27T09:04:07.129Z,2.20
2023-02-27T09:06:40.741Z,1.83
2023-02-27T09:09:07.701Z,2.00
2023-02-27T09:11:35.351Z,1.60
2023-02-27T09:14:03.392Z,1.60
2023-02-27T09:16:32.788Z,1.60
2023-02-27T09:18:59.955Z,2.00
2023-02-27T09:21:27.402Z,1.37
2023-02-27T09:23:54.848Z,1.87
2023-02-27T09:26:28.766Z,1.77
2023-02-27T09:29:05.376Z,1.60
2023-02-27T09:31:37.210Z,1.53
2023-02-27T09:34:08.892Z,1.67
2023-02-27T09:36:35.792Z,1.50
2023-02-27T09:39:04.797Z,1.83
2023-02-27T09:41:56.612Z,1.60
2023-02-27T09:44:46.917Z,1.60
2023-02-27T09:47:39.940Z,1.60
2023-02-27T09:50:32.750Z,1.40
2023-02-27T09:53:00.972Z,1.67
2023-02-27T09:55:35.558Z,1.30
2023-02-27T09:58:28.484Z,1.60
2023-02-27T10:01:09.388Z,1.30
2023-02-27T10:04:04.456Z,1.40
2023-02-27T10:07:05.959Z,1.33
2023-02-27T10:09:52.840Z,1.50
2023-02-27T10:13:26.104Z,1.37
2023-02-27T10:16:01.430Z,1.40
2023-02-27T10:19:05.688Z,1.53
2023-02-27T10:21:44.493Z,1.60
2023-02-27T10:24:34.214Z,1.30
2023-02-27T10:27:13.672Z,1.40
2023-02-27T10:29:41.601Z,1.20
2023-02-27T10:32:26.727Z,1.77
2023-02-27T10:35:09.400Z,1.50
2023-02-27T10:37:51.344Z,1.40
2023-02-27T10:40:21.876Z,1.50
2023-02-27T10:42:54.639Z,1.40
2023-02-27T10:45:21.844Z,1.50
2023-02-27T10:47:53.487Z,1.23
2023-02-27T10:50:38.563Z,1.63
2023-02-27T10:53:24.658Z,1.20
2023-02-27T10:56:05.123Z,1.20
2023-02-27T10:58:39.376Z,1.20
2023-02-27T11:01:15.599Z,1.10
2023-02-27T11:03:45.699Z,1.33
2023-02-27T11:06:29.905Z,1.10
2023-02-27T11:09:34.133Z,1.13
2023-02-27T11:12:26.954Z,1.10
2023-02-27T11:15:20.721Z,1.20
2023-02-27T11:18:15.154Z,1.20
2023-02-27T11:20:43.529Z,1.17
2023-02-27T11:23:29.277Z,1.40
2023-02-27T11:26:17.336Z,1.53
2023-02-27T11:28:47.268Z,1.23
2023-02-27T11:31:23.810Z,1.20
2023-02-27T11:33:58.959Z,1.30
2023-02-27T11:36:46.693Z,1.20
2023-02-27T11:39:47.905Z,1.37
2023-02-27T11:42:34.845Z,1.10
2023-02-27T11:46:04.484Z,1.50
2023-02-27T11:48:11.398Z,1.50
2023-02-27T11:51:40.794Z,1.10
2023-02-27T11:54:09.608Z,1.13
2023-02-27T11:57:10.081Z,1.00
2023-02-27T11:59:51.378Z,1.00
2023-02-27T12:02:30.346Z,0.90
2023-02-27T12:05:07.749Z,1.00
2023-02-27T12:07:52.746Z,1.10
2023-02-27T12:10:30.572Z,1.00
2023-02-27T12:13:04.121Z,1.00
2023-02-27T12:15:42.120Z,0.90
2023-02-27T12:18:11.061Z,0.77
2023-02-27T12:20:54.165Z,0.80
2023-02-27T12:23:43.076Z,0.90
2023-02-27T12:26:27.396Z,0.70
2023-02-27T12:29:15.055Z,1.00
2023-02-27T12:32:27.850Z,1.00
2023-02-27T12:35:15.991Z,1.20
2023-02-27T12:37:46.035Z,0.90
2023-02-27T12:40:20.988Z,1.10
2023-02-27T12:43:15.683Z,0.87
2023-02-27T12:46:24.178Z,0.90
2023-02-27T12:49:09.053Z,1.80
2023-02-27T12:52:12.801Z,1.13
2023-02-27T12:55:18.030Z,2.17
2023-02-27T12:58:06.214Z,1.80
2023-02-27T13:00:44.390Z,1.00
2023-02-27T13:03:41.751Z,1.07
2023-02-27T13:07:04.836Z,0.90
2023-02-27T13:09:57.099Z,1.00
2023-02-27T13:12:56.483Z,0.80
2023-02-27T13:15:48.549Z,0.60
2023-02-27T13:19:05.305Z,0.60
2023-02-27T13:21:44.974Z,2.70
2023-02-27T13:24:28.947Z,1.10
2023-02-27T13:27:14.756Z,0.80
2023-02-27T13:29:47.831Z,0.90
2023-02-27T13:32:52.819Z,0.83
2023-02-27T13:35:50.728Z,1.00
2023-02-27T13:38:44.716Z,0.70
2023-02-27T13:41:22.797Z,1.00
2023-02-27T13:44:19.019Z,0.80
2023-02-27T13:46:46.425Z,0.73
2023-02-27T13:49:26.939Z,1.07
2023-02-27T13:51:59.053Z,0.90
2023-02-27T13:54:36.330Z,1.10
2023-02-27T13:57:33.644Z,1.00
2023-02-27T14:00:21.611Z,0.80
2023-02-27T14:03:03.771Z,0.90
2023-02-27T14:05:41.491Z,1.00
2023-02-27T14:08:24.908Z,0.90
2023-02-27T14:11:10.289Z,0.97
2023-02-27T14:13:49.760Z,1.00
2023-02-27T14:16:38.957Z,1.20
2023-02-27T14:19:23.642Z,1.13
2023-02-27T14:22:16.254Z,1.00
2023-02-27T14:25:26.380Z,1.20
2023-02-27T14:27:58.496Z,1.17
2023-02-27T14:30:31.939Z,0.93
2023-02-27T14:33:21.672Z,0.83
2023-02-27T14:36:01.457Z,0.80
2023-02-27T14:38:32.099Z,0.80
2023-02-27T14:41:35.327Z,0.90
2023-02-27T14:44:05.616Z,1.10
2023-02-27T14:46:42.457Z,0.80
2023-02-27T14:49:46.614Z,0.90
2023-02-27T14:52:31.357Z,0.87
2023-02-27T14:55:27.739Z,0.77
2023-02-27T14:57:58.427Z,0.93
2023-02-27T15:01:20.391Z,0.70
2023-02-27T15:03:49.675Z,0.87
2023-02-27T15:06:30.131Z,0.90
2023-02-27T15:09:01.978Z,0.93
2023-02-27T15:11:29.467Z,0.80
2023-02-27T15:14:06.240Z,0.90
2023-02-27T15:16:39.602Z,1.00
2023-02-27T15:19:23.018Z,1.20
2023-02-27T15:21:59.319Z,1.00
2023-02-27T15:24:49.569Z,1.00
2023-02-27T15:27:22.568Z,1.30
2023-02-27T15:29:59.561Z,0.90
2023-02-27T15:32:32.707Z,1.20
2023-02-27T15:35:33.530Z,1.20
2023-02-27T15:38:05.304Z,1.30
2023-02-27T15:40:37.315Z,1.20
2023-02-27T15:43:06.759Z,1.40
2023-02-27T15:45:36.631Z,1.27
2023-02-27T15:48:07.274Z,0.97
2023-02-27T15:50:38.234Z,1.00
2023-02-27T15:53:17.047Z,0.90
2023-02-27T15:55:52.654Z,0.90
2023-02-27T15:58:21.869Z,1.10
2023-02-27T16:01:01.625Z,1.00
2023-02-27T16:03:58.262Z,1.00
2023-02-27T16:06:39.049Z,1.30
2023-02-27T16:09:17.681Z,1.20
2023-02-27T16:11:49.483Z,0.90
2023-02-27T16:14:44.784Z,1.07
2023-02-27T16:17:31.851Z,1.20
2023-02-27T16:20:31.051Z,1.10
2023-02-27T16:23:14.247Z,1.27
2023-02-27T16:25:42.392Z,1.47
2023-02-27T16:28:14.548Z,1.37
2023-02-27T16:30:52.734Z,1.07
2023-02-27T16:33:29.315Z,1.30
2023-02-27T16:36:21.279Z,1.10
2023-02-27T16:38:53.473Z,1.30
2023-02-27T16:41:24.158Z,1.37
2023-02-27T16:43:53.546Z,1.30
2023-02-27T16:46:20.973Z,1.40
2023-02-27T16:49:04.522Z,1.30
2023-02-27T16:51:37.572Z,1.57
2023-02-27T16:54:06.985Z,1.30
2023-02-27T16:56:38.513Z,1.30
2023-02-27T16:59:06.505Z,1.47
2023-02-27T17:01:35.903Z,1.40
2023-02-27T17:04:05.180Z,1.77
2023-02-27T17:06:40.640Z,1.40
2023-02-27T17:09:15.343Z,1.40
2023-02-27T17:11:42.219Z,1.83
2023-02-27T17:14:13.768Z,1.60
2023-02-27T17:16:42.803Z,1.47
2023-02-27T17:19:12.473Z,1.30
2023-02-27T17:21:42.098Z,1.33
2023-02-27T17:24:09.460Z,1.60
2023-02-27T17:26:38.604Z,1.70
2023-02-27T17:29:09.567Z,1.30
2023-02-27T17:31:37.639Z,1.17
2023-02-27T17:34:08.615Z,1.30
2023-02-27T17:36:36.464Z,1.27
2023-02-27T17:39:05.666Z,1.60
2023-02-27T17:41:35.690Z,1.50
2023-02-27T17:44:02.613Z,1.60
2023-02-27T17:46:33.518Z,1.40
2023-02-27T17:49:00.722Z,1.40
2023-02-27T17:51:31.920Z,1.30
2023-02-27T17:54:03.162Z,1.47
2023-02-27T17:56:30.605Z,1.50
2023-02-27T17:59:00.563Z,1.53
2023-02-27T18:01:28.916Z,1.50
2023-02-27T18:03:56.876Z,1.60
2023-02-27T18:06:26.677Z,1.53
2023-02-27T18:08:56.056Z,1.33
2023-02-27T18:11:25.252Z,1.53
2023-02-27T18:13:54.828Z,1.77
2023-02-27T18:16:24.225Z,1.43
2023-02-27T18:18:51.125Z,1.40
2023-02-27T18:21:23.080Z,1.70
2023-02-27T18:23:55.125Z,1.50
2023-02-27T18:26:30.818Z,1.70
2023-02-27T18:29:13.867Z,1.73
2023-02-27T18:31:46.007Z,1.80
2023-02-27T18:34:15.760Z,1.37
2023-02-27T18:36:44.991Z,1.40
2023-02-27T18:39:16.480Z,1.50
2023-02-27T18:41:43.523Z,1.60
2023-02-27T18:44:12.494Z,1.97
2023-02-27T18:46:46.350Z,1.70
2023-02-27T18:49:16.504Z,1.80
2023-02-27T18:51:45.655Z,2.00
2023-02-27T18:54:14.972Z,1.80
2023-02-27T18:56:52.829Z,2.03
2023-02-27T18:59:22.260Z,2.77
2023-02-27T19:01:52.075Z,1.90
2023-02-27T19:04:25.436Z,2.20
2023-02-27T19:06:54.566Z,2.20
2023-02-27T19:09:32.588Z,2.13
2023-02-27T19:12:03.281Z,2.30
2023-02-27T19:14:32.527Z,2.40
2023-02-27T19:17:09.097Z,2.10
2023-02-27T19:19:38.549Z,1.90
2023-02-27T19:22:07.869Z,1.97
2023-02-27T19:24:34.678Z,2.33
2023-02-27T19:27:04.063Z,2.80
2023-02-27T19:29:31.006Z,2.40
2023-02-27T19:31:57.895Z,2.53
2023-02-27T19:34:24.942Z,2.57
2023-02-27T19:36:54.427Z,2.40
2023-02-27T19:39:22.878Z,2.30
2023-02-27T19:41:52.351Z,2.30
2023-02-27T19:44:21.641Z,2.60
2023-02-27T19:46:51.397Z,2.03
2023-02-27T19:49:20.809Z,2.73
2023-02-27T19:51:50.077Z,2.60
2023-02-27T19:54:17.425Z,2.40
2023-02-27T19:56:44.823Z,2.13
2023-02-27T19:59:21.855Z,2.53
2023-02-27T20:01:53.902Z,2.47
2023-02-27T20:04:23.187Z,2.30
2023-02-27T20:06:53.569Z,2.37
2023-02-27T20:09:26.801Z,2.17
2023-02-27T20:11:56.788Z,2.27
2023-02-27T20:14:28.867Z,2.30
2023-02-27T20:16:58.468Z,2.60
2023-02-27T20:19:25.998Z,2.37
2023-02-27T20:21:56.504Z,2.43
2023-02-27T20:24:24.418Z,2.80
2023-02-27T20:26:54.838Z,2.80
2023-02-27T20:29:28.497Z,2.40
2023-02-27T20:32:00.255Z,2.77
2023-02-27T20:34:27.311Z,2.67
2023-02-27T20:36:56.013Z,2.67
2023-02-27T20:39:27.910Z,2.30
2023-02-27T20:41:54.788Z,2.50
2023-02-27T20:44:21.917Z,2.43
2023-02-27T20:46:56.129Z,2.03
2023-02-27T20:49:27.714Z,2.53
2023-02-27T20:51:58.477Z,2.50
2023-02-27T20:54:28.044Z,2.30
2023-02-27T20:56:54.867Z,2.80
2023-02-27T20:59:27.779Z,2.27
2023-02-27T21:01:55.441Z,2.30
2023-02-27T21:04:47.153Z,2.23
2023-02-27T21:07:21.415Z,2.73
2023-02-27T21:09:50.795Z,2.43
2023-02-27T21:12:20.121Z,2.40
2023-02-27T21:14:49.710Z,2.33
2023-02-27T21:17:18.896Z,2.43
2023-02-27T21:19:45.829Z,2.20
2023-02-27T21:22:14.226Z,2.33
2023-02-27T21:24:41.260Z,2.40
2023-02-27T21:27:08.150Z,2.37
2023-02-27T21:29:37.254Z,2.63
2023-02-27T21:32:04.464Z,2.40
2023-02-27T21:34:33.900Z,2.50
2023-02-27T21:37:02.977Z,2.50
2023-02-27T21:39:32.712Z,2.30
2023-02-27T21:42:01.690Z,2.47
2023-02-27T21:44:33.461Z,2.73
2023-02-27T21:47:09.639Z,3.13
2023-02-27T21:49:37.227Z,2.73
2023-02-27T21:52:04.167Z,2.37
2023-02-27T21:54:31.111Z,2.80
2023-02-27T21:57:06.097Z,3.17
2023-02-27T21:59:35.359Z,3.07
2023-02-27T22:02:02.329Z,3.07
2023-02-27T22:04:29.592Z,2.83
2023-02-27T22:07:01.025Z,2.33
2023-02-27T22:09:30.363Z,2.37
2023-02-27T22:11:59.416Z,2.57
2023-02-27T22:14:26.241Z,2.10
2023-02-27T22:16:55.676Z,2.40
2023-02-27T22:19:24.901Z,2.43
2023-02-27T22:21:54.143Z,2.07
2023-02-27T22:24:25.126Z,2.00
2023-02-27T22:26:54.100Z,2.13
2023-02-27T22:29:23.340Z,1.67
2023-02-27T22:31:52.541Z,1.80
2023-02-27T22:34:19.447Z,1.73
2023-02-27T22:36:53.104Z,1.80
2023-02-27T22:39:22.254Z,1.77
2023-02-27T22:41:55.901Z,1.90
2023-02-27T22:44:25.756Z,1.60
2023-02-27T22:46:54.493Z,1.93
2023-02-27T22:49:23.580Z,2.07
2023-02-27T22:51:51.907Z,1.93
2023-02-27T22:54:23.267Z,1.63
2023-02-27T22:56:55.849Z,2.30
2023-02-27T22:59:26.727Z,1.90
2023-02-27T23:01:55.986Z,2.00
2023-02-27T23:04:25.378Z,2.30
2023-02-27T23:06:58.974Z,2.67
2023-02-27T23:09:30.485Z,2.43
2023-02-27T23:12:02.100Z,2.80
2023-02-27T23:14:31.348Z,2.93
2023-02-27T23:16:58.853Z,3.23
2023-02-27T23:19:25.736Z,2.60
2023-02-27T23:21:54.607Z,2.97
2023-02-27T23:24:23.843Z,3.23
2023-02-27T23:26:53.278Z,3.53
2023-02-27T23:29:24.759Z,3.43
2023-02-27T23:31:53.923Z,3.57
2023-02-27T23:34:23.366Z,3.47
2023-02-27T23:36:50.319Z,3.30
2023-02-27T23:39:17.246Z,3.40
2023-02-27T23:41:44.114Z,3.60
2023-02-27T23:44:10.958Z,3.57
2023-02-27T23:46:38.327Z,3.40
2023-02-27T23:49:11.538Z,3.33
2023-02-27T23:51:40.979Z,3.20
2023-02-27T23:54:10.526Z,3.40
2023-02-27T23:56:39.602Z,3.13
2023-02-27T23:59:10.954Z,3.33
